Accueil
METAR-TAF:

METAR-TAF

Aéroports :

Aéroport international du Caire

Le Caire, Égypte

latitude: 30-08N, longitude: 031-24E, altitude: 64 m

Observation

Le bulletin a été fait il y a 28 minutes, à 18:00 UTC
Vent 3 kt de sud/sud-ouest
Température 31°C
Humidité 31%
Pression 1012 hPa
Visibilité 10 km ou plus
pas de nuages en-dessous de 1500 mètres et pas de cumulonimbus.

METAR: HECA 221800Z 21003KT CAVOK 31/12 Q1012 NOSIG

Heure: 20:28 (18:28 UTC)

Prévision

Le bulletin a été fait il y a 1 heure et 28 minutes, à 17:00 UTC
Prévision valable du 22 à 18 UTC au 23 à 24 UTC
Vent 8 kt de ouest/sud-ouest
Visibilité: 6000 m
Temporairement
du 23 à 00 UTC au 23 à 07 UTC

TAF: HECA 221700Z 2218/2324 24008KT 6000 NSC TEMPO 2300/2307 3000HZ

Observations et prévisions météorologiques de plus de 4000 aéroports (messages METAR et TAF).

Les stations disponibles sont représentées par des disques jaunes et rouges sur la carte.

Passer la souris dessus pour voir le nom de la station.

Cliquer dessus pour voir les observations et prévisions météorologiques.

Pour changer de carte: cliquez sur les boutons verts avec une croix noire pour zoomer, sur le bouton vert avec un tiret pour effectuer un zoom arrière, ou sur les flèches vertes pour les cartes adjacentes.


METAR-TAF: